sensor_id;sensor_type;location;lat;lon;timestamp;pressure;altitude;pressure_sealevel;temperature;humidity
76994;BME280;66749;47.406;18.822;2023-04-30T00:00:09;100242.06;;;13.26;68.95
76994;BME280;66749;47.406;18.822;2023-04-30T00:00:40;100240.16;;;13.28;68.67
76994;BME280;66749;47.406;18.822;2023-04-30T00:01:10;100243.72;;;13.27;68.63
76994;BME280;66749;47.406;18.822;2023-04-30T00:01:41;100246.47;;;13.26;68.70
76994;BME280;66749;47.406;18.822;2023-04-30T00:02:11;100236.94;;;13.25;68.69
76994;BME280;66749;47.406;18.822;2023-04-30T00:02:42;100243.97;;;13.24;68.71
76994;BME280;66749;47.406;18.822;2023-04-30T00:03:13;100238.72;;;13.24;68.77
76994;BME280;66749;47.406;18.822;2023-04-30T00:03:43;100235.34;;;13.22;68.74
76994;BME280;66749;47.406;18.822;2023-04-30T00:04:14;100240.59;;;13.22;68.74
76994;BME280;66749;47.406;18.822;2023-04-30T00:04:45;100242.47;;;13.20;69.01
76994;BME280;66749;47.406;18.822;2023-04-30T00:05:15;100249.69;;;13.17;69.25
76994;BME280;66749;47.406;18.822;2023-04-30T00:05:49;100246.44;;;13.13;69.41
76994;BME280;66749;47.406;18.822;2023-04-30T00:06:21;100242.25;;;13.11;69.51
76994;BME280;66749;47.406;18.822;2023-04-30T00:06:51;100242.47;;;13.08;69.56
76994;BME280;66749;47.406;18.822;2023-04-30T00:07:22;100242.47;;;13.08;69.48
76994;BME280;66749;47.406;18.822;2023-04-30T00:07:53;100238.91;;;13.09;69.45
76994;BME280;66749;47.406;18.822;2023-04-30T00:08:23;100246.00;;;13.06;69.58
76994;BME280;66749;47.406;18.822;2023-04-30T00:08:54;100239.94;;;13.06;69.35
76994;BME280;66749;47.406;18.822;2023-04-30T00:09:24;100249.59;;;13.05;69.45
76994;BME280;66749;47.406;18.822;2023-04-30T00:09:55;100236.81;;;13.01;69.54
76994;BME280;66749;47.406;18.822;2023-04-30T00:10:26;100244.69;;;13.01;69.51
76994;BME280;66749;47.406;18.822;2023-04-30T00:10:56;100240.56;;;12.97;69.64
76994;BME280;66749;47.406;18.822;2023-04-30T00:11:27;100238.06;;;12.95;69.68
76994;BME280;66749;47.406;18.822;2023-04-30T00:11:57;100247.06;;;12.91;69.82
76994;BME280;66749;47.406;18.822;2023-04-30T00:12:28;100233.25;;;12.89;69.99
76994;BME280;66749;47.406;18.822;2023-04-30T00:12:58;100241.31;;;12.86;69.87
76994;BME280;66749;47.406;18.822;2023-04-30T00:13:29;100239.53;;;12.87;69.90
76994;BME280;66749;47.406;18.822;2023-04-30T00:14:00;100244.78;;;12.87;70.04
76994;BME280;66749;47.406;18.822;2023-04-30T00:14:30;100248.22;;;12.87;69.82
76994;BME280;66749;47.406;18.822;2023-04-30T00:15:01;100247.69;;;12.82;70.09
76994;BME280;66749;47.406;18.822;2023-04-30T00:15:32;100235.97;;;12.75;70.43
76994;BME280;66749;47.406;18.822;2023-04-30T00:16:02;100240.59;;;12.71;70.62
76994;BME280;66749;47.406;18.822;2023-04-30T00:16:33;100242.56;;;12.68;70.69
76994;BME280;66749;47.406;18.822;2023-04-30T00:17:03;100234.69;;;12.68;70.74
76994;BME280;66749;47.406;18.822;2023-04-30T00:17:34;100242.66;;;12.66;70.51
76994;BME280;66749;47.406;18.822;2023-04-30T00:18:05;100248.63;;;12.68;70.14
76994;BME280;66749;47.406;18.822;2023-04-30T00:18:37;100236.59;;;12.66;70.28
76994;BME280;66749;47.406;18.822;2023-04-30T00:19:08;100249.78;;;12.64;70.47
76994;BME280;66749;47.406;18.822;2023-04-30T00:19:38;100247.34;;;12.61;70.51
76994;BME280;66749;47.406;18.822;2023-04-30T00:20:09;100244.66;;;12.63;70.22
76994;BME280;66749;47.406;18.822;2023-04-30T00:20:40;100242.22;;;12.60;70.07
76994;BME280;66749;47.406;18.822;2023-04-30T00:21:10;100251.31;;;12.54;70.06
76994;BME280;66749;47.406;18.822;2023-04-30T00:21:41;100248.19;;;12.49;70.49
76994;BME280;66749;47.406;18.822;2023-04-30T00:22:11;100253.44;;;12.49;70.49
76994;BME280;66749;47.406;18.822;2023-04-30T00:22:42;100248.28;;;12.47;70.43
76994;BME280;66749;47.406;18.822;2023-04-30T00:23:13;100242.22;;;12.47;70.41
76994;BME280;66749;47.406;18.822;2023-04-30T00:23:43;100250.91;;;12.47;70.18
76994;BME280;66749;47.406;18.822;2023-04-30T00:24:14;100251.94;;;12.45;70.03
76994;BME280;66749;47.406;18.822;2023-04-30T00:24:45;100254.53;;;12.32;70.38
76994;BME280;66749;47.406;18.822;2023-04-30T00:25:15;100254.72;;;12.29;70.88
76994;BME280;66749;47.406;18.822;2023-04-30T00:25:46;100256.72;;;12.26;70.76
76994;BME280;66749;47.406;18.822;2023-04-30T00:26:16;100255.88;;;12.25;70.54
76994;BME280;66749;47.406;18.822;2023-04-30T00:26:47;100255.66;;;12.28;70.31
76994;BME280;66749;47.406;18.822;2023-04-30T00:27:18;100259.22;;;12.27;70.29
76994;BME280;66749;47.406;18.822;2023-04-30T00:27:48;100248.03;;;12.25;70.38
76994;BME280;66749;47.406;18.822;2023-04-30T00:28:19;100246.31;;;12.24;70.32
76994;BME280;66749;47.406;18.822;2023-04-30T00:28:49;100250.84;;;12.22;70.28
76994;BME280;66749;47.406;18.822;2023-04-30T00:29:20;100255.53;;;12.17;70.39
76994;BME280;66749;47.406;18.822;2023-04-30T00:29:50;100247.03;;;12.13;70.60
76994;BME280;66749;47.406;18.822;2023-04-30T00:30:21;100250.59;;;12.12;70.57
76994;BME280;66749;47.406;18.822;2023-04-30T00:30:52;100245.56;;;12.09;70.87
76994;BME280;66749;47.406;18.822;2023-04-30T00:31:22;100250.59;;;12.12;70.52
76994;BME280;66749;47.406;18.822;2023-04-30T00:31:53;100243.88;;;12.08;70.77
76994;BME280;66749;47.406;18.822;2023-04-30T00:32:24;100245.84;;;12.05;70.62
76994;BME280;66749;47.406;18.822;2023-04-30T00:32:54;100245.13;;;12.03;70.83
76994;BME280;66749;47.406;18.822;2023-04-30T00:33:25;100254.00;;;12.00;70.68
76994;BME280;66749;47.406;18.822;2023-04-30T00:33:55;100247.09;;;11.99;70.98
76994;BME280;66749;47.406;18.822;2023-04-30T00:34:26;100241.84;;;11.99;70.76
76994;BME280;66749;47.406;18.822;2023-04-30T00:34:57;100249.91;;;11.96;70.70
76994;BME280;66749;47.406;18.822;2023-04-30T00:35:28;100250.66;;;11.98;70.93
76994;BME280;66749;47.406;18.822;2023-04-30T00:35:58;100247.09;;;11.99;71.00
76994;BME280;66749;47.406;18.822;2023-04-30T00:36:29;100247.09;;;11.99;70.60
76994;BME280;66749;47.406;18.822;2023-04-30T00:37:00;100247.28;;;11.96;70.96
76994;BME280;66749;47.406;18.822;2023-04-30T00:37:31;100243.94;;;11.94;70.68
76994;BME280;66749;47.406;18.822;2023-04-30T00:38:01;100247.69;;;11.90;70.91
76994;BME280;66749;47.406;18.822;2023-04-30T00:38:32;100246.84;;;11.89;70.92
76994;BME280;66749;47.406;18.822;2023-04-30T00:39:03;100243.50;;;11.87;71.13
76994;BME280;66749;47.406;18.822;2023-04-30T00:39:33;100246.19;;;11.86;71.25
76994;BME280;66749;47.406;18.822;2023-04-30T00:40:04;100249.00;;;11.83;71.33
76994;BME280;66749;47.406;18.822;2023-04-30T00:40:36;100241.34;;;11.80;71.43
76994;BME280;66749;47.406;18.822;2023-04-30T00:41:07;100242.94;;;11.82;71.21
76994;BME280;66749;47.406;18.822;2023-04-30T00:41:38;100249.75;;;11.85;71.01
76994;BME280;66749;47.406;18.822;2023-04-30T00:42:09;100240.22;;;11.84;71.09
76994;BME280;66749;47.406;18.822;2023-04-30T00:42:39;100248.28;;;11.81;71.19
76994;BME280;66749;47.406;18.822;2023-04-30T00:43:10;100242.09;;;11.82;71.18
76994;BME280;66749;47.406;18.822;2023-04-30T00:43:41;100235.94;;;11.83;71.29
76994;BME280;66749;47.406;18.822;2023-04-30T00:44:11;100239.50;;;11.82;71.09
76994;BME280;66749;47.406;18.822;2023-04-30T00:44:42;100241.16;;;11.83;71.49
76994;BME280;66749;47.406;18.822;2023-04-30T00:45:12;100241.16;;;11.83;71.49
76994;BME280;66749;47.406;18.822;2023-04-30T00:45:43;100242.84;;;11.84;71.29
76994;BME280;66749;47.406;18.822;2023-04-30T00:46:14;100241.81;;;11.86;71.36
76994;BME280;66749;47.406;18.822;2023-04-30T00:46:44;100240.88;;;11.87;70.87
76994;BME280;66749;47.406;18.822;2023-04-30T00:47:15;100237.22;;;11.90;71.44
76994;BME280;66749;47.406;18.822;2023-04-30T00:47:46;100235.72;;;11.86;71.52
76994;BME280;66749;47.406;18.822;2023-04-30T00:48:17;100242.72;;;11.85;71.96
76994;BME280;66749;47.406;18.822;2023-04-30T00:48:48;100246.28;;;11.84;71.68
76994;BME280;66749;47.406;18.822;2023-04-30T00:49:19;100239.28;;;11.85;71.99
76994;BME280;66749;47.406;18.822;2023-04-30T00:49:50;100240.97;;;11.86;71.80
76994;BME280;66749;47.406;18.822;2023-04-30T00:50:21;100238.44;;;11.84;71.77
76994;BME280;66749;47.406;18.822;2023-04-30T00:50:52;100241.72;;;11.88;71.98
76994;BME280;66749;47.406;18.822;2023-04-30T00:51:22;100234.72;;;11.88;71.78
76994;BME280;66749;47.406;18.822;2023-04-30T00:51:53;100243.38;;;11.89;72.09
76994;BME280;66749;47.406;18.822;2023-04-30T00:52:26;100244.22;;;11.89;72.18
76994;BME280;66749;47.406;18.822;2023-04-30T00:52:56;100238.56;;;11.83;72.34
76994;BME280;66749;47.406;18.822;2023-04-30T00:53:30;100237.59;;;11.84;72.54
76994;BME280;66749;47.406;18.822;2023-04-30T00:54:01;100231.44;;;11.85;72.75
76994;BME280;66749;47.406;18.822;2023-04-30T00:54:32;100239.09;;;11.88;72.66
76994;BME280;66749;47.406;18.822;2023-04-30T00:55:03;100238.06;;;11.90;72.15
76994;BME280;66749;47.406;18.822;2023-04-30T00:55:34;100238.91;;;11.91;72.36
76994;BME280;66749;47.406;18.822;2023-04-30T00:56:07;100238.78;;;11.92;72.20
76994;BME280;66749;47.406;18.822;2023-04-30T00:56:38;100233.78;;;11.89;72.64
76994;BME280;66749;47.406;18.822;2023-04-30T00:57:11;100233.88;;;11.88;72.65
76994;BME280;66749;47.406;18.822;2023-04-30T00:57:43;100229.38;;;11.90;72.53
76994;BME280;66749;47.406;18.822;2023-04-30T00:58:14;100226.75;;;11.90;72.50
76994;BME280;66749;47.406;18.822;2023-04-30T00:58:44;100236.28;;;11.91;72.57
76994;BME280;66749;47.406;18.822;2023-04-30T00:59:15;100232.00;;;11.90;72.70
76994;BME280;66749;47.406;18.822;2023-04-30T00:59:47;100234.72;;;11.88;72.58
76994;BME280;66749;47.406;18.822;2023-04-30T01:00:18;100228.44;;;11.91;72.62
76994;BME280;66749;47.406;18.822;2023-04-30T01:00:49;100229.28;;;11.91;72.64
76994;BME280;66749;47.406;18.822;2023-04-30T01:01:20;100224.16;;;11.90;72.63
76994;BME280;66749;47.406;18.822;2023-04-30T01:01:51;100234.41;;;11.93;72.41
76994;BME280;66749;47.406;18.822;2023-04-30T01:02:22;100231.78;;;11.93;72.46
76994;BME280;66749;47.406;18.822;2023-04-30T01:02:54;100230.88;;;11.94;72.69
76994;BME280;66749;47.406;18.822;2023-04-30T01:03:27;100237.66;;;11.97;72.52
76994;BME280;66749;47.406;18.822;2023-04-30T01:03:58;100229.81;;;11.97;72.18
76994;BME280;66749;47.406;18.822;2023-04-30T01:04:30;100228.88;;;11.98;72.32
76994;BME280;66749;47.406;18.822;2023-04-30T01:05:03;100230.88;;;11.94;72.12
76994;BME280;66749;47.406;18.822;2023-04-30T01:05:34;100234.22;;;11.96;71.86
76994;BME280;66749;47.406;18.822;2023-04-30T01:06:04;100236.00;;;11.96;72.40
76994;BME280;66749;47.406;18.822;2023-04-30T01:06:35;100232.72;;;11.92;72.54
76994;BME280;66749;47.406;18.822;2023-04-30T01:07:06;100237.94;;;11.92;72.26
76994;BME280;66749;47.406;18.822;2023-04-30T01:07:36;100228.25;;;11.94;72.32
76994;BME280;66749;47.406;18.822;2023-04-30T01:08:09;100236.84;;;11.96;72.08
76994;BME280;66749;47.406;18.822;2023-04-30T01:08:41;100235.22;;;11.93;72.38
76994;BME280;66749;47.406;18.822;2023-04-30T01:09:12;100235.16;;;11.95;72.14
76994;BME280;66749;47.406;18.822;2023-04-30T01:09:43;100237.94;;;11.92;71.97
76994;BME280;66749;47.406;18.822;2023-04-30T01:10:14;100230.31;;;11.89;72.19
76994;BME280;66749;47.406;18.822;2023-04-30T01:12:28;100235.94;;;11.83;71.78
76994;BME280;66749;47.406;18.822;2023-04-30T01:13:12;100234.88;;;11.85;71.50
76994;BME280;66749;47.406;18.822;2023-04-30T01:14:29;100244.34;;;11.74;72.14
76994;BME280;66749;47.406;18.822;2023-04-30T01:15:21;100241.72;;;11.74;72.21
76994;BME280;66749;47.406;18.822;2023-04-30T01:15:59;100238.94;;;11.62;72.32
76994;BME280;66749;47.406;18.822;2023-04-30T01:16:36;100232.41;;;11.55;72.15
76994;BME280;66749;47.406;18.822;2023-04-30T01:17:33;100230.56;;;11.57;72.33
76994;BME280;66749;47.406;18.822;2023-04-30T01:18:11;100233.16;;;11.57;72.11
76994;BME280;66749;47.406;18.822;2023-04-30T01:18:55;100241.09;;;11.56;72.12
76994;BME280;66749;47.406;18.822;2023-04-30T01:20:00;100242.22;;;11.52;72.04
76994;BME280;66749;47.406;18.822;2023-04-30T01:20:32;100244.19;;;11.48;72.27
76994;BME280;66749;47.406;18.822;2023-04-30T01:21:04;100233.19;;;11.43;71.94
76994;BME280;66749;47.406;18.822;2023-04-30T01:21:38;100237.47;;;11.44;71.97
76994;BME280;66749;47.406;18.822;2023-04-30T01:22:49;100235.06;;;11.41;72.12
76994;BME280;66749;47.406;18.822;2023-04-30T01:23:46;100242.81;;;11.43;72.10
76994;BME280;66749;47.406;18.822;2023-04-30T01:24:40;100237.13;;;11.36;72.04
76994;BME280;66749;47.406;18.822;2023-04-30T01:25:43;100238.44;;;11.29;72.14
76994;BME280;66749;47.406;18.822;2023-04-30T01:28:14;100240.19;;;11.28;72.16
76994;BME280;66749;47.406;18.822;2023-04-30T01:28:49;100236.75;;;11.28;72.34
76994;BME280;66749;47.406;18.822;2023-04-30T01:29:23;100239.47;;;11.26;71.98
76994;BME280;66749;47.406;18.822;2023-04-30T01:29:55;100242.91;;;11.27;72.16
76994;BME280;66749;47.406;18.822;2023-04-30T01:30:26;100235.97;;;11.26;72.40
76994;BME280;66749;47.406;18.822;2023-04-30T01:30:58;100235.16;;;11.25;72.16
76994;BME280;66749;47.406;18.822;2023-04-30T01:31:28;100239.53;;;11.25;72.35
76994;BME280;66749;47.406;18.822;2023-04-30T01:31:59;100237.84;;;11.24;72.58
76994;BME280;66749;47.406;18.822;2023-04-30T01:32:31;100242.34;;;11.22;72.49
76994;BME280;66749;47.406;18.822;2023-04-30T01:33:02;100236.28;;;11.21;72.38
76994;BME280;66749;47.406;18.822;2023-04-30T01:33:32;100239.00;;;11.20;72.48
76994;BME280;66749;47.406;18.822;2023-04-30T01:34:03;100241.59;;;11.20;72.82
76994;BME280;66749;47.406;18.822;2023-04-30T01:34:34;100239.94;;;11.19;72.80
76994;BME280;66749;47.406;18.822;2023-04-30T01:35:04;100242.53;;;11.19;72.50
76994;BME280;66749;47.406;18.822;2023-04-30T01:37:08;100246.72;;;11.21;72.42
76994;BME280;66749;47.406;18.822;2023-04-30T01:37:45;100238.53;;;11.13;72.62
76994;BME280;66749;47.406;18.822;2023-04-30T01:40:50;100243.66;;;11.15;72.94
76994;BME280;66749;47.406;18.822;2023-04-30T01:41:31;100248.13;;;11.13;72.84
76994;BME280;66749;47.406;18.822;2023-04-30T01:42:15;100250.06;;;11.09;72.78
76994;BME280;66749;47.406;18.822;2023-04-30T01:43:00;100253.06;;;11.03;73.61
76994;BME280;66749;47.406;18.822;2023-04-30T01:44:35;100247.19;;;10.99;73.54
76994;BME280;66749;47.406;18.822;2023-04-30T01:46:27;100250.28;;;11.06;73.57
76994;BME280;66749;47.406;18.822;2023-04-30T01:47:52;100247.75;;;11.04;74.06
76994;BME280;66749;47.406;18.822;2023-04-30T01:48:46;100248.75;;;11.02;73.81
76994;BME280;66749;47.406;18.822;2023-04-30T01:50:12;100257.91;;;11.09;73.61
76994;BME280;66749;47.406;18.822;2023-04-30T01:50:50;100255.31;;;11.09;73.49
76994;BME280;66749;47.406;18.822;2023-04-30T01:51:39;100256.97;;;11.10;73.50
76994;BME280;66749;47.406;18.822;2023-04-30T01:52:28;100258.84;;;11.08;73.46
76994;BME280;66749;47.406;18.822;2023-04-30T01:53:02;100250.06;;;11.09;73.71
76994;BME280;66749;47.406;18.822;2023-04-30T01:53:43;100248.41;;;11.08;73.29
76994;BME280;66749;47.406;18.822;2023-04-30T01:54:26;100250.91;;;11.09;73.77
76994;BME280;66749;47.406;18.822;2023-04-30T01:55:04;100252.78;;;11.07;73.77
76994;BME280;66749;47.406;18.822;2023-04-30T01:55:42;100247.56;;;11.07;73.91
76994;BME280;66749;47.406;18.822;2023-04-30T01:56:20;100250.19;;;11.07;73.12
76994;BME280;66749;47.406;18.822;2023-04-30T01:57:02;100249.13;;;11.10;72.87
76994;BME280;66749;47.406;18.822;2023-04-30T01:57:49;100247.38;;;11.10;73.23
76994;BME280;66749;47.406;18.822;2023-04-30T01:58:23;100244.69;;;11.12;73.07
76994;BME280;66749;47.406;18.822;2023-04-30T01:58:54;100245.53;;;11.13;72.99
76994;BME280;66749;47.406;18.822;2023-04-30T01:59:26;100246.47;;;11.11;73.01
76994;BME280;66749;47.406;18.822;2023-04-30T01:59:57;100249.81;;;11.14;72.98
76994;BME280;66749;47.406;18.822;2023-04-30T02:00:29;100249.81;;;11.14;73.09
76994;BME280;66749;47.406;18.822;2023-04-30T02:01:02;100246.38;;;11.13;73.46
76994;BME280;66749;47.406;18.822;2023-04-30T02:01:33;100249.81;;;11.14;73.44
76994;BME280;66749;47.406;18.822;2023-04-30T02:02:05;100255.03;;;11.14;73.32
76994;BME280;66749;47.406;18.822;2023-04-30T02:02:35;100251.75;;;11.10;73.68
76994;BME280;66749;47.406;18.822;2023-04-30T02:03:06;100256.25;;;11.08;73.80
76994;BME280;66749;47.406;18.822;2023-04-30T02:03:37;100250.28;;;11.06;74.06
76994;BME280;66749;47.406;18.822;2023-04-30T02:04:07;100253.00;;;11.04;73.91
76994;BME280;66749;47.406;18.822;2023-04-30T02:04:38;100251.31;;;11.03;74.17
76994;BME280;66749;47.406;18.822;2023-04-30T02:05:09;100251.47;;;11.00;73.93
76994;BME280;66749;47.406;18.822;2023-04-30T02:05:39;100251.47;;;11.00;74.35
76994;BME280;66749;47.406;18.822;2023-04-30T02:06:10;100252.59;;;10.96;74.24
76994;BME280;66749;47.406;18.822;2023-04-30T02:06:40;100247.44;;;10.95;74.43
76994;BME280;66749;47.406;18.822;2023-04-30T02:07:19;100258.72;;;10.95;74.42
76994;BME280;66749;47.406;18.822;2023-04-30T02:07:56;100253.34;;;10.98;74.31
76994;BME280;66749;47.406;18.822;2023-04-30T02:08:27;100257.00;;;10.96;74.31
76994;BME280;66749;47.406;18.822;2023-04-30T02:08:57;100256.13;;;10.95;74.66
76994;BME280;66749;47.406;18.822;2023-04-30T02:09:32;100252.50;;;10.98;74.77
76994;BME280;66749;47.406;18.822;2023-04-30T02:10:04;100257.84;;;10.96;74.94
76994;BME280;66749;47.406;18.822;2023-04-30T02:10:35;100250.00;;;10.96;74.91
76994;BME280;66749;47.406;18.822;2023-04-30T02:11:05;100250.06;;;10.95;74.74
76994;BME280;66749;47.406;18.822;2023-04-30T02:11:36;100246.72;;;10.93;75.02
76994;BME280;66749;47.406;18.822;2023-04-30T02:12:06;100258.00;;;10.93;75.13
76994;BME280;66749;47.406;18.822;2023-04-30T02:12:38;100258.00;;;10.93;75.26
76994;BME280;66749;47.406;18.822;2023-04-30T02:13:09;100256.22;;;10.94;75.27
76994;BME280;66749;47.406;18.822;2023-04-30T02:13:39;100260.59;;;10.93;75.28
76994;BME280;66749;47.406;18.822;2023-04-30T02:14:10;100265.00;;;10.93;75.10
76994;BME280;66749;47.406;18.822;2023-04-30T02:14:40;100263.22;;;10.93;75.12
76994;BME280;66749;47.406;18.822;2023-04-30T02:15:11;100264.25;;;10.91;75.63
76994;BME280;66749;47.406;18.822;2023-04-30T02:15:42;100267.69;;;10.91;75.47
76994;BME280;66749;47.406;18.822;2023-04-30T02:16:13;100267.69;;;10.91;75.41
76994;BME280;66749;47.406;18.822;2023-04-30T02:16:43;100266.03;;;10.90;75.88
76994;BME280;66749;47.406;18.822;2023-04-30T02:17:14;100269.56;;;10.89;75.75
76994;BME280;66749;47.406;18.822;2023-04-30T02:17:44;100271.16;;;10.92;75.20
76994;BME280;66749;47.406;18.822;2023-04-30T02:18:15;100272.91;;;10.91;75.55
76994;BME280;66749;47.406;18.822;2023-04-30T02:18:46;100265.19;;;10.90;75.82
76994;BME280;66749;47.406;18.822;2023-04-30T02:19:17;100266.03;;;10.90;75.84
76994;BME280;66749;47.406;18.822;2023-04-30T02:19:47;100267.59;;;10.93;75.56
76994;BME280;66749;47.406;18.822;2023-04-30T02:20:18;100270.03;;;10.96;75.26
76994;BME280;66749;47.406;18.822;2023-04-30T02:20:48;100269.84;;;10.99;74.97
76994;BME280;66749;47.406;18.822;2023-04-30T02:21:19;100273.22;;;11.01;75.01
76994;BME280;66749;47.406;18.822;2023-04-30T02:21:50;100268.09;;;10.99;74.82
76994;BME280;66749;47.406;18.822;2023-04-30T02:22:21;100265.38;;;11.01;74.96
76994;BME280;66749;47.406;18.822;2023-04-30T02:22:51;100270.50;;;11.02;75.12
76994;BME280;66749;47.406;18.822;2023-04-30T02:23:22;100268.81;;;11.01;74.99
76994;BME280;66749;47.406;18.822;2023-04-30T02:23:53;100268.81;;;11.01;74.65
76994;BME280;66749;47.406;18.822;2023-04-30T02:24:23;100272.38;;;11.00;74.84
76994;BME280;66749;47.406;18.822;2023-04-30T02:24:54;100273.94;;;11.03;74.82
76994;BME280;66749;47.406;18.822;2023-04-30T02:25:26;100268.81;;;11.01;74.53
76994;BME280;66749;47.406;18.822;2023-04-30T02:25:57;100273.31;;;10.99;74.88
76994;BME280;66749;47.406;18.822;2023-04-30T02:26:27;100272.28;;;11.02;75.09
76994;BME280;66749;47.406;18.822;2023-04-30T02:26:58;100260.06;;;11.02;74.70
76994;BME280;66749;47.406;18.822;2023-04-30T02:27:30;100272.19;;;11.03;74.44
76994;BME280;66749;47.406;18.822;2023-04-30T02:28:01;100274.97;;;11.00;74.58
76994;BME280;66749;47.406;18.822;2023-04-30T02:28:32;100269.84;;;10.99;74.69
76994;BME280;66749;47.406;18.822;2023-04-30T02:29:03;100266.22;;;11.01;74.62
76994;BME280;66749;47.406;18.822;2023-04-30T02:29:34;100269.00;;;10.98;74.37
76994;BME280;66749;47.406;18.822;2023-04-30T02:30:05;100265.47;;;10.99;74.55
76994;BME280;66749;47.406;18.822;2023-04-30T02:30:36;100267.25;;;10.99;74.47
76994;BME280;66749;47.406;18.822;2023-04-30T02:31:07;100264.53;;;11.00;74.43
76994;BME280;66749;47.406;18.822;2023-04-30T02:31:37;100265.38;;;11.01;74.74
76994;BME280;66749;47.406;18.822;2023-04-30T02:32:08;100266.22;;;11.01;74.44
76994;BME280;66749;47.406;18.822;2023-04-30T02:32:38;100267.16;;;11.00;74.29
76994;BME280;66749;47.406;18.822;2023-04-30T02:33:09;100257.63;;;10.99;74.52
76994;BME280;66749;47.406;18.822;2023-04-30T02:33:41;100262.13;;;10.97;74.21
76994;BME280;66749;47.406;18.822;2023-04-30T02:34:12;100265.66;;;10.96;74.21
76994;BME280;66749;47.406;18.822;2023-04-30T02:34:42;100263.22;;;10.93;74.30
76994;BME280;66749;47.406;18.822;2023-04-30T02:35:13;100262.47;;;10.91;74.47
76994;BME280;66749;47.406;18.822;2023-04-30T02:35:44;100265.09;;;10.91;74.52
76994;BME280;66749;47.406;18.822;2023-04-30T02:36:15;100269.38;;;10.92;74.39
76994;BME280;66749;47.406;18.822;2023-04-30T02:36:46;100266.75;;;10.92;74.63
76994;BME280;66749;47.406;18.822;2023-04-30T02:37:16;100266.13;;;10.89;74.80
76994;BME280;66749;47.406;18.822;2023-04-30T02:37:47;100269.56;;;10.89;74.46
76994;BME280;66749;47.406;18.822;2023-04-30T02:38:18;100266.03;;;10.90;74.42
76994;BME280;66749;47.406;18.822;2023-04-30T02:38:48;100263.31;;;10.92;74.26
76994;BME280;66749;47.406;18.822;2023-04-30T02:39:19;100266.88;;;10.91;74.19
76994;BME280;66749;47.406;18.822;2023-04-30T02:39:50;100264.16;;;10.92;74.24
76994;BME280;66749;47.406;18.822;2023-04-30T02:40:21;100269.38;;;10.92;74.09
76994;BME280;66749;47.406;18.822;2023-04-30T02:40:51;100263.41;;;10.90;74.08
76994;BME280;66749;47.406;18.822;2023-04-30T02:41:22;100265.94;;;10.92;74.41
76994;BME280;66749;47.406;18.822;2023-04-30T02:41:52;100260.69;;;10.92;74.23
76994;BME280;66749;47.406;18.822;2023-04-30T02:42:23;100268.53;;;10.92;74.20
76994;BME280;66749;47.406;18.822;2023-04-30T02:42:54;100267.88;;;10.88;74.32
76994;BME280;66749;47.406;18.822;2023-04-30T02:43:26;100266.13;;;10.89;74.07
76994;BME280;66749;47.406;18.822;2023-04-30T02:43:56;100266.03;;;10.90;74.18
76994;BME280;66749;47.406;18.822;2023-04-30T02:44:28;100267.13;;;10.86;74.13
76994;BME280;66749;47.406;18.822;2023-04-30T02:44:58;100271.41;;;10.87;74.07
76994;BME280;66749;47.406;18.822;2023-04-30T02:45:30;100262.00;;;10.84;74.33
76994;BME280;66749;47.406;18.822;2023-04-30T02:46:00;100269.94;;;10.83;74.61
76994;BME280;66749;47.406;18.822;2023-04-30T02:46:31;100268.16;;;10.83;73.93
76994;BME280;66749;47.406;18.822;2023-04-30T02:47:02;100264.88;;;10.80;74.41
76994;BME280;66749;47.406;18.822;2023-04-30T02:47:32;100264.03;;;10.79;74.40
76994;BME280;66749;47.406;18.822;2023-04-30T02:48:03;100271.03;;;10.79;74.32
76994;BME280;66749;47.406;18.822;2023-04-30T02:48:34;100262.34;;;10.78;74.33
76994;BME280;66749;47.406;18.822;2023-04-30T02:49:04;100268.50;;;10.77;74.39
76994;BME280;66749;47.406;18.822;2023-04-30T02:49:35;100266.00;;;10.76;74.24
76994;BME280;66749;47.406;18.822;2023-04-30T02:50:06;100266.94;;;10.75;74.47
76994;BME280;66749;47.406;18.822;2023-04-30T02:50:37;100265.25;;;10.74;74.30
76994;BME280;66749;47.406;18.822;2023-04-30T02:51:07;100273.72;;;10.77;74.18
76994;BME280;66749;47.406;18.822;2023-04-30T02:51:39;100265.06;;;10.77;74.31
76994;BME280;66749;47.406;18.822;2023-04-30T02:52:10;100268.03;;;10.71;74.40
76994;BME280;66749;47.406;18.822;2023-04-30T02:52:40;100270.63;;;10.71;74.65
76994;BME280;66749;47.406;18.822;2023-04-30T02:53:11;100268.22;;;10.68;74.83
76994;BME280;66749;47.406;18.822;2023-04-30T02:53:41;100271.66;;;10.68;74.45
76994;BME280;66749;47.406;18.822;2023-04-30T02:54:12;100270.81;;;10.68;74.74
76994;BME280;66749;47.406;18.822;2023-04-30T02:54:42;100275.22;;;10.67;74.65
76994;BME280;66749;47.406;18.822;2023-04-30T02:55:13;100274.44;;;10.65;74.42
76994;BME280;66749;47.406;18.822;2023-04-30T02:55:44;100267.47;;;10.66;74.74
76994;BME280;66749;47.406;18.822;2023-04-30T02:56:15;100266.69;;;10.64;74.73
76994;BME280;66749;47.406;18.822;2023-04-30T02:56:46;100273.59;;;10.65;74.38
76994;BME280;66749;47.406;18.822;2023-04-30T02:57:16;100273.59;;;10.65;74.48
76994;BME280;66749;47.406;18.822;2023-04-30T02:57:47;100280.44;;;10.67;74.41
76994;BME280;66749;47.406;18.822;2023-04-30T02:58:17;100276.03;;;10.68;74.34
76994;BME280;66749;47.406;18.822;2023-04-30T02:58:48;100273.44;;;10.68;74.34
76994;BME280;66749;47.406;18.822;2023-04-30T02:59:19;100274.53;;;10.64;74.57
76994;BME280;66749;47.406;18.822;2023-04-30T02:59:49;100280.03;;;10.59;74.73